Current Weather

Fulton County

Rochester, Indiana (KRCR)

Report from: Thursday, April 25, 2024 1:15 AM EDT
Current time: Thursday, April 25, 2024 1:42 AM EDT

Nearby weather – Weather history – Daily summaries
Weather forecast

Temperature3.0°C (37.4°F)
Wind chill0.5°C (32.8°F)
Dew point3.0°C (37.4°F)
Winds 5 kts (2.6 m/s, 5.8 mph) North (350°)
Visibility10 mi. (16.1 km)
Clouds Sky clear
Altimeter30.30 in.Hg (1026 mB)
Relative humidity100 %
Density altitude-1,781 ft. (-543 m)
Remarks Fully automated report
Automated weather observing station with precipitation discriminator
Flight conditions Visual Meteorological Conditions
Raw dataKRCR 250515Z AUTO 35005KT 10SM CLR 03/03 A3030 RMK AO2
An error has occurred. This application may no longer respond until reloaded. Reload 🗙